This is the latest recevied weather packets stored in our database for station/object ANJALA. If no packets are shown the sender has not sent any weather packets the latest 10 day(s).
| Time | Temp. | Humidity | Pressure | Rain* | Wind** | Luminosity | Snow |
|---|---|---|---|---|---|---|---|
| 1777676818 | 5.56° C | 90% | - | 0 mm | - | - | - |
| 1777675618 | 6.11° C | 88% | - | 0 mm | - | - | - |
| 1777674418 | 6.11° C | 89% | - | 0 mm | - | - | - |
| 1777673218 | 6.67° C | 88% | - | 0 mm | - | - | - |
| 1777672018 | 6.67° C | 84% | - | 0 mm | - | - | - |
| 1777670817 | 7.78° C | 83% | - | 0 mm | - | - | - |
| 1777669617 | 7.78° C | 79% | - | 0 mm | - | - | - |
| 1777668417 | 8.33° C | 77% | - | 0 mm | - | - | - |
| 1777667217 | 9.44° C | 74% | - | 0 mm | - | - | - |
| 1777666017 | 10° C | 71% | - | 0 mm | - | - | - |
| 1777664817 | 10° C | 70% | - | 0 mm | - | - | - |
| 1777663617 | 11.11° C | 65% | - | 0 mm | - | - | - |
| 1777662417 | 12.78° C | 58% | - | 0 mm | - | - | - |
| 1777661217 | 13.33° C | 54% | - | 0 mm | - | - | - |
| 1777660017 | 14.44° C | 50% | - | 0 mm | - | - | - |
| 1777658817 | 14.44° C | 44% | - | 0 mm | - | - | - |
| 1777657617 | 17.22° C | 34% | - | 0 mm | - | - | - |
| 1777656417 | 18.33° C | 30% | - | 0 mm | - | - | - |
| 1777655217 | 19.44° C | 29% | - | 0 mm | - | - | - |
| 1777654017 | 19.44° C | 28% | - | 0 mm | - | - | - |
| 1777652816 | 20.56° C | 27% | - | 0 mm | - | - | - |
| 1777651616 | 20.56° C | 27% | - | 0 mm | - | - | - |
| 1777650416 | 20.56° C | 32% | - | 0 mm | - | - | - |
| 1777649216 | 20° C | 39% | - | 0 mm | - | - | - |
| 1777648016 | 19.44° C | 40% | - | 0 mm | - | - | - |
* Rain latest hour (hover to see other rain measurements)
** Current wind speed in m/s (hover to see current wind gust speed)